Joice, IA (50446)

2:35 AM CDT on September 01, 2015 (GMT -0500)
3 miles north of Fertile, IA | | Change Station
CLOSE
Current Station
Personal Weather Station
Location: Hanlontown, IA
Elevation: 1240 ft
Nearby Weather Stations
Active Advisory: Special Statement

Elev 1240 ft 43.31 °N, 93.42 °W | Updated 56 seconds ago

Fog
Fog
67.7 °F
Feels Like 67.7 °F
N
2.0
Wind Variable Wind from SE
Gusts 4.0 mph

Today
High -- | Low -- °F
--% Chance of Precip.
Yesterday
High -- | Low -- °F
Precip. -- in
6:37 AM 7:49 PM
Waning Gibbous, 91% visible
Pressure 29.96 in
Visibility 0.2 miles
Clouds Overcast 200 ft
Dew Point 67 °F
Humidity 98%
Rainfall 0.00 in
Snow Depth Not available.
UV 0 out of 12
Pollen 10.90 out of 12
Air Quality Not available.
Flu Activity Not available.
METAR KFXY 010715Z AUTO 00000KT M1/4SM FG OVC002 16/16 A2996 RMK AO2
Pressure 29.96 in
Visibility 0.2 miles
Clouds Overcast 200 ft
Dew Point 67 °F
Humidity 98%
Rainfall 0.00 in
Snow Depth Not available.
UV 0 out of 12
Pollen 10.90 out of 12
Air Quality Not available.
Flu Activity Not available.
METAR KFXY 010715Z AUTO 00000KT M1/4SM FG OVC002 16/16 A2996 RMK AO2

10-Day Weather Forecast

×

Almanac

Astronomy

Sep. 01, 2015 Rise Set
Actual Time
Civil Twilight
Nautical Twilight
Astronomical Twilight
Moon
Length of Visible Light
Length of Day
Tomorrow will be .
, % of the Moon is Illuminated

Today's Extremes

State Highs State Lows

Community

WunderPhotos

Upload Photos

1,851,488 photos uploaded!

WunderBlogs® & News

Nearby

Air Quality

  Air Quality AQ Index Pollutant
Not available.

Snow Depth

Station Depth Elevation

Earthquake Activity

City Distance Mag. Time & Date
Minimum magnitude displayed is 2.5.

Coastal Water Temperatures

Place Temperature

Stations

Nearby Weather Stations

Station Location Temp. Windchill Dew Point Humidity Wind Precip. Elev Updated Type
                   
Special Statement
Statement as of 1:44 AM CDT on September 01, 2015

... Patchy dense fog forming overnight...

Areas of fog have developed overnight... with patches of dense fog
affecting some areas along the north of the Highway 30 corridor.
Within these pockets of denser fog visibility will be reduced to
less than a quarter of a mile at times. If you are driving please
be alert for these rapid changes in visibility.


Lee

144 am CDT Tue Sep 1 2015

... Patchy dense fog forming overnight...

Areas of fog have developed overnight... with patches of dense fog
affecting some areas along the north of the Highway 30 corridor.
Within these pockets of denser fog visibility will be reduced to
less than a quarter of a mile at times. If you are driving please
be alert for these rapid changes in visibility.


Lee